Time;durP1;ratioP1;P1;durP2;ratioP2;P2;SDS_P1;SDS_P2;PMS_P1;PMS_P2;Temp;Humidity;BMP_temperature;BMP_pressure;BME280_temperature;BME280_humidity;BME280_pressure;Samples;Min_cycle;Max_cycle;Signal;HPM_P1;HPM_P2
2022/07/29 00:00:14;;;;;;;5.47;2.10;;;;;15.80;98718.00;;;;5043789;28;82317;-66
2022/07/29 00:02:40;;;;;;;4.03;2.20;;;16.00;99.90;15.80;98728.00;;;;5041721;28;82255;-65
2022/07/29 00:05:09;;;;;;;7.18;2.08;;;15.30;99.90;15.70;98722.00;;;;5044336;28;82627;-65
2022/07/29 00:07:36;;;;;;;4.47;2.17;;;;;15.70;98725.00;;;;5043176;28;83350;-65
2022/07/29 00:10:03;;;;;;;5.75;1.90;;;15.60;99.90;15.60;98725.00;;;;5043338;28;83039;-65
2022/07/29 00:12:30;;;;;;;4.80;2.08;;;;;15.60;98724.00;;;;5026199;28;83435;-65
2022/07/29 00:14:57;;;;;;;4.75;2.53;;;15.30;99.90;15.60;98725.00;;;;5024347;28;83761;-65
2022/07/29 00:17:24;;;;;;;3.80;2.20;;;15.20;99.90;15.50;98728.00;;;;5043840;28;82330;-65
2022/07/29 00:19:51;;;;;;;2.67;2.10;;;;;15.50;98728.00;;;;5043330;28;82784;-65
2022/07/29 00:22:18;;;;;;;3.15;2.50;;;;;15.50;98739.00;;;;5044253;28;83497;-66
2022/07/29 00:24:44;;;;;;;3.95;2.08;;;15.80;99.90;15.40;98736.00;;;;5043998;28;82712;-66
2022/07/29 00:27:10;;;;;;;4.15;2.03;;;;;15.40;98745.00;;;;5026687;28;82295;-65
2022/07/29 00:29:37;;;;;;;4.53;2.40;;;15.00;99.90;15.40;98742.00;;;;5042676;28;82326;-66
2022/07/29 00:32:03;;;;;;;6.40;2.88;;;;;15.30;98738.00;;;;5023899;28;83397;-65
2022/07/29 00:37:15;;;;;;;3.75;2.40;;;;;15.20;98737.00;;;;5034129;28;82179;-65
2022/07/29 00:39:42;;;;;;;4.28;2.90;;;;;15.20;98729.00;;;;5043821;28;81910;-66
2022/07/29 00:42:09;;;;;;;6.40;3.08;;;;;15.20;98746.00;;;;5043141;28;82634;-66
2022/07/29 00:44:40;;;;;;;7.90;3.50;;;14.90;99.90;15.10;98753.00;;;;5042975;28;83661;-65
2022/07/29 00:47:08;;;;;;;6.03;3.70;;;15.00;99.90;15.10;98753.00;;;;5044212;28;82569;-66
2022/07/29 00:49:35;;;;;;;6.30;3.33;;;15.00;99.90;15.10;98747.00;;;;5039583;28;82406;-66
2022/07/29 00:52:08;;;;;;;4.35;3.13;;;15.20;99.90;15.00;98747.00;;;;5043734;28;82826;-66
2022/07/29 00:54:35;;;;;;;4.65;3.30;;;14.90;99.90;15.00;98754.00;;;;5042835;28;82540;-66
2022/07/29 00:57:02;;;;;;;3.70;3.30;;;14.90;99.90;14.90;98756.00;;;;5043921;28;82259;-66
2022/07/29 00:59:28;;;;;;;6.30;3.38;;;;;14.90;98749.00;;;;5042889;28;83451;-65
2022/07/29 01:01:55;;;;;;;6.85;3.47;;;14.80;99.90;14.90;98753.00;;;;5042791;28;83065;-66
2022/07/29 01:04:22;;;;;;;6.63;3.50;;;14.90;99.90;14.90;98759.00;;;;5041921;28;82519;-66
2022/07/29 01:06:49;;;;;;;4.85;3.70;;;14.90;99.90;14.90;98760.00;;;;5024392;28;83429;-66
2022/07/29 01:09:18;;;;;;;7.60;3.50;;;14.80;99.90;14.90;98758.00;;;;5024614;28;82028;-66
2022/07/29 01:11:46;;;;;;;5.57;4.00;;;15.00;99.90;14.80;98774.00;;;;5042584;28;82489;-66
2022/07/29 01:14:12;;;;;;;5.53;3.78;;;14.70;99.90;14.80;98758.00;;;;5024727;28;82504;-66
2022/07/29 01:17:02;;;;;;;8.65;4.05;;;14.60;99.90;14.70;98755.00;;;;5025607;28;83217;-66
2022/07/29 01:19:47;;;;;;;10.20;4.47;;;;;14.70;98770.00;;;;5036511;28;82931;-66
2022/07/29 01:22:42;;;;;;;7.03;4.53;;;14.70;99.90;14.70;98761.00;;;;5031482;28;82234;-66
2022/07/29 01:25:41;;;;;;;7.15;4.57;;;14.60;99.90;14.70;98771.00;;;;5029753;28;84673;-66
2022/07/29 01:28:50;;;;;;;6.47;4.47;;;14.60;99.90;14.60;98770.00;;;;5040304;28;83279;-66
2022/07/29 01:31:23;;;;;;;5.72;4.57;;;14.50;99.90;14.60;98769.00;;;;5021556;28;82212;-66
2022/07/29 01:34:00;;;;;;;7.80;4.75;;;14.60;99.90;14.60;98761.00;;;;5042670;28;82094;-66
2022/07/29 01:36:33;;;;;;;7.53;4.70;;;14.50;99.90;14.60;98765.00;;;;5037749;28;82636;-66
2022/07/29 01:39:16;;;;;;;7.85;5.68;;;14.50;99.90;14.50;98764.00;;;;5006076;28;82098;-66
2022/07/29 01:41:58;;;;;;;6.47;5.40;;;14.40;99.90;14.50;98766.00;;;;5024988;28;82195;-66
2022/07/29 01:44:33;;;;;;;;;;;14.50;99.90;14.50;98762.00;;;;5025822;28;83596;-66
2022/07/29 01:47:11;;;;;;;7.35;6.50;;;14.50;99.90;14.50;98769.00;;;;5024340;28;83534;-66
2022/07/29 01:49:46;;;;;;;7.28;6.68;;;14.30;99.90;14.40;98770.00;;;;5025140;28;82057;-66
2022/07/29 01:52:31;;;;;;;8.95;6.97;;;14.00;99.90;14.40;98766.00;;;;5041225;28;83385;-66
2022/07/29 01:55:04;;;;;;;10.90;7.57;;;14.30;99.90;14.40;98768.00;;;;5024507;28;82918;-66
2022/07/29 01:57:33;;;;;;;7.95;7.10;;;14.30;99.90;14.40;98763.00;;;;5042929;28;83067;-65
2022/07/29 02:00:01;;;;;;;7.63;7.03;;;14.40;99.90;14.30;98769.00;;;;5024034;28;83538;-65
2022/07/29 02:02:42;;;;;;;8.50;7.80;;;14.30;99.90;14.30;98772.00;;;;5042491;28;82389;-66
2022/07/29 02:05:13;;;;;;;8.50;7.45;;;13.90;99.90;14.30;98765.00;;;;5024356;28;83631;-66
2022/07/29 02:07:42;;;;;;;8.25;7.45;;;13.80;99.90;14.30;98767.00;;;;5007152;28;84053;-66
2022/07/29 02:10:10;;;;;;;10.07;7.90;;;14.60;99.90;14.30;98759.00;;;;5024632;28;83392;-66
2022/07/29 02:12:39;;;;;;;8.98;7.50;;;14.30;99.90;14.30;98762.00;;;;5024358;28;82437;-66
2022/07/29 02:15:29;;;;;;;9.10;7.57;;;14.50;99.90;14.30;98764.00;;;;5013211;28;84373;-66
2022/07/29 02:18:17;;;;;;;9.75;7.72;;;14.30;99.90;14.30;98768.00;;;;5041567;28;83410;-66
2022/07/29 02:20:53;;;;;;;9.48;7.07;;;14.30;99.90;14.30;98765.00;;;;5037107;28;83114;-66
2022/07/29 02:23:23;;;;;;;8.45;7.10;;;14.30;99.90;14.30;98760.00;;;;5041685;28;82842;-66
2022/07/29 02:25:53;;;;;;;7.78;6.38;;;14.70;99.90;14.30;98766.00;;;;5024127;28;82018;-66
2022/07/29 02:28:22;;;;;;;9.80;6.28;;;14.40;99.90;14.40;98765.00;;;;5041500;28;83872;-66
2022/07/29 02:30:52;;;;;;;8.93;5.50;;;14.50;99.90;14.60;98766.00;;;;5041323;28;82303;-66
2022/07/29 02:33:20;;;;;;;10.38;4.38;;;14.70;99.90;14.70;98768.00;;;;5007668;28;82288;-66
2022/07/29 02:35:47;;;;;;;3.90;2.90;;;14.90;99.90;14.90;98770.00;;;;5042000;28;82846;-66
2022/07/29 02:41:11;;;;;;;4.28;2.40;;;15.60;99.90;15.90;98769.00;;;;5040618;28;82563;-66
2022/07/29 02:43:38;;;;;;;4.47;1.98;;;;;16.10;98773.00;;;;5024127;28;83581;-66
2022/07/29 02:46:08;;;;;;;2.28;1.95;;;16.20;99.90;16.60;98771.00;;;;5010706;28;82794;-66
2022/07/29 02:49:08;;;;;;;6.40;1.63;;;16.60;99.90;16.90;98777.00;;;;5004053;28;82614;-66
2022/07/29 02:51:44;;;;;;;4.10;2.10;;;16.60;99.90;16.80;98774.00;;;;4984099;28;83669;-66
2022/07/29 02:54:16;;;;;;;4.10;1.80;;;16.50;99.90;17.00;98769.00;;;;5020686;28;81995;-66
2022/07/29 02:56:44;;;;;;;4.70;1.50;;;16.80;99.90;17.10;98767.00;;;;5004383;28;82257;-66
2022/07/29 02:59:13;;;;;;;3.75;1.80;;;17.00;99.90;17.40;98766.00;;;;5006617;28;82549;-66
2022/07/29 03:01:43;;;;;;;7.00;1.75;;;17.00;99.90;17.50;98775.00;;;;4991637;28;83040;-66
2022/07/29 03:04:11;;;;;;;3.58;1.30;;;17.60;99.90;17.90;98761.00;;;;5006841;28;82228;-66
2022/07/29 03:06:39;;;;;;;6.65;1.60;;;18.70;99.90;17.40;98776.00;;;;5006607;28;83482;-66
2022/07/29 03:09:07;;;;;;;3.38;1.60;;;16.40;99.90;17.30;98788.00;;;;5024079;28;84749;-66
2022/07/29 03:11:35;;;;;;;3.83;1.40;;;17.00;99.90;17.20;98769.00;;;;5007162;28;83746;-66
2022/07/29 03:14:02;;;;;;;5.22;1.98;;;17.30;99.90;17.40;98771.00;;;;5024347;28;82191;-66
2022/07/29 03:16:29;;;;;;;3.45;1.65;;;;;17.60;98768.00;;;;5024865;28;81998;-66
2022/07/29 03:18:56;;;;;;;6.30;2.03;;;;;17.90;98756.00;;;;5024384;28;82596;-66
2022/07/29 03:21:22;;;;;;;3.88;1.80;;;17.90;99.90;18.00;98766.00;;;;5024925;28;82383;-66
2022/07/29 03:23:48;;;;;;;5.68;1.70;;;;;17.80;98763.00;;;;5002559;28;82366;-66
2022/07/29 03:26:15;;;;;;;3.83;1.45;;;;;18.20;98765.00;;;;5026542;28;82392;-66
2022/07/29 03:28:41;;;;;;;5.03;1.30;;;;;18.30;98761.00;;;;5035217;28;82256;-66
2022/07/29 03:31:08;;;;;;;1.95;1.10;;;;;18.50;98770.00;;;;5006075;28;84491;-66
2022/07/29 03:33:34;;;;;;;4.78;1.20;;;;;18.10;98777.00;;;;5024450;28;83454;-66
2022/07/29 03:36:02;;;;;;;5.22;1.33;;;;;18.40;98778.00;;;;5022570;28;83155;-66
2022/07/29 03:38:30;;;;;;;3.60;1.52;;;18.30;99.90;18.60;98775.00;;;;5025346;28;83672;-66
2022/07/29 03:41:03;;;;;;;4.85;1.25;;;17.90;99.90;18.40;98777.00;;;;5007588;28;82408;-65
2022/07/29 03:43:35;;;;;;;4.05;1.40;;;18.40;99.90;18.70;98776.00;;;;5007208;28;81865;-65
2022/07/29 03:46:04;;;;;;;1.85;1.00;;;18.70;99.90;19.00;98769.00;;;;5016839;28;82538;-65
2022/07/29 03:48:33;;;;;;;7.20;1.48;;;18.50;99.90;19.00;98779.00;;;;5020373;28;82118;-65
2022/07/29 03:50:59;;;;;;;5.72;1.67;;;18.60;99.90;19.40;98793.00;;;;5026733;28;82695;-65
2022/07/29 03:53:25;;;;;;;3.22;1.20;;;18.40;99.90;19.20;98780.00;;;;5025764;28;82171;-65
2022/07/29 03:55:57;;;;;;;3.28;1.40;;;18.60;99.90;19.40;98786.00;;;;5043596;28;83321;-65
2022/07/29 03:58:26;;;;;;;6.13;1.40;;;18.70;99.90;19.40;98800.00;;;;5043336;28;84700;-66
2022/07/29 04:00:54;;;;;;;4.45;1.50;;;19.30;99.90;19.70;98798.00;;;;5026266;28;83310;-65
2022/07/29 04:03:21;;;;;;;6.50;1.73;;;19.90;99.90;19.60;98798.00;;;;5026386;28;82394;-66
2022/07/29 04:06:06;;;;;;;4.25;1.30;;;19.10;99.90;19.10;98803.00;;;;5004831;28;82788;-65
2022/07/29 04:08:35;;;;;;;4.20;1.50;;;19.40;99.90;19.40;98812.00;;;;5041810;27;82633;-65
2022/07/29 04:11:03;;;;;;;3.85;1.10;;;18.60;99.90;19.30;98809.00;;;;5022653;28;82392;-65
2022/07/29 04:13:29;;;;;;;4.13;1.35;;;;;19.40;98803.00;;;;5040741;28;82047;-65
2022/07/29 04:15:56;;;;;;;4.05;1.15;;;;;19.20;98802.00;;;;5043567;28;82482;-66
2022/07/29 04:18:23;;;;;;;2.88;1.05;;;18.80;99.90;19.50;98800.00;;;;5044243;28;82565;-65
2022/07/29 04:20:49;;;;;;;6.78;1.45;;;19.70;99.90;19.60;98813.00;;;;5043525;28;82344;-65
2022/07/29 04:23:16;;;;;;;4.60;1.50;;;;;19.80;98813.00;;;;5042875;28;83857;-65
2022/07/29 04:25:43;;;;;;;3.42;1.30;;;19.60;99.90;20.10;98808.00;;;;5025916;28;82246;-65
2022/07/29 04:28:10;;;;;;;4.80;1.60;;;19.70;99.90;20.10;98810.00;;;;5044052;28;82357;-65
2022/07/29 04:30:38;;;;;;;3.45;1.58;;;19.40;99.90;20.50;98810.00;;;;5036724;28;82418;-65
2022/07/29 04:33:07;;;;;;;4.72;1.23;;;20.20;99.90;20.70;98815.00;;;;5043536;28;81988;-65
2022/07/29 04:35:37;;;;;;;7.70;1.73;;;19.70;99.90;20.80;98811.00;;;;5043150;28;82217;-65
2022/07/29 04:38:05;;;;;;;3.73;1.53;;;20.50;99.90;20.90;98814.00;;;;5043345;28;82566;-65
2022/07/29 04:40:32;;;;;;;11.38;1.55;;;;;21.00;98822.00;;;;5008511;28;86358;-67
2022/07/29 04:43:00;;;;;;;6.22;1.50;;;20.70;99.90;21.20;98819.00;;;;5025235;28;82289;-65
2022/07/29 04:45:28;;;;;;;5.45;1.55;;;20.40;99.90;20.90;98821.00;;;;5042812;28;83401;-65
2022/07/29 04:47:55;;;;;;;3.28;1.42;;;;;21.10;98821.00;;;;5024294;28;83314;-65
2022/07/29 04:50:22;;;;;;;7.63;1.40;;;20.60;99.90;20.60;98829.00;;;;5043327;28;83088;-65
2022/07/29 04:52:49;;;;;;;4.35;1.70;;;;;21.00;98821.00;;;;5024347;28;82033;-65
2022/07/29 04:55:15;;;;;;;7.38;1.48;;;;;21.40;98830.00;;;;5041095;28;81952;-65
2022/07/29 04:57:42;;;;;;;4.82;1.27;;;;;21.50;98824.00;;;;5008258;28;83677;-65
2022/07/29 05:00:09;;;;;;;4.60;1.40;;;21.00;99.90;21.70;98828.00;;;;5043308;28;82178;-65
2022/07/29 05:02:35;;;;;;;9.40;1.40;;;;;21.70;98827.00;;;;4991235;28;82979;-65
2022/07/29 05:05:02;;;;;;;4.65;1.38;;;20.40;99.90;20.60;98827.00;;;;5036616;28;82560;-66
2022/07/29 05:07:29;;;;;;;2.88;1.10;;;;;20.00;98828.00;;;;5036205;28;82647;-65
2022/07/29 05:09:56;;;;;;;3.97;1.27;;;19.90;99.90;19.60;98828.00;;;;5023727;28;82770;-65
2022/07/29 05:12:24;;;;;;;2.70;1.23;;;20.20;99.90;20.70;98829.00;;;;5040202;28;83846;-65
2022/07/29 05:14:51;;;;;;;6.47;1.90;;;;;21.40;98834.00;;;;5018769;28;83437;-66
2022/07/29 05:17:17;;;;;;;3.65;1.80;;;;;21.10;98842.00;;;;5041966;28;83570;-66
2022/07/29 05:19:44;;;;;;;3.53;1.30;;;20.60;99.90;21.40;98837.00;;;;5041405;27;83793;-67
2022/07/29 05:22:10;;;;;;;7.32;1.48;;;;;21.00;98840.00;;;;5041646;28;82479;-64
2022/07/29 05:24:37;;;;;;;3.70;1.48;;;;;20.80;98826.00;;;;5042847;28;81947;-65
2022/07/29 05:27:04;;;;;;;2.58;1.20;;;;;21.10;98824.00;;;;5042279;28;83688;-65
2022/07/29 05:29:30;;;;;;;2.92;1.38;;;20.10;99.90;20.50;98830.00;;;;5042599;28;82188;-65
2022/07/29 05:31:57;;;;;;;3.70;1.35;;;;;20.30;98836.00;;;;5042434;28;82250;-65
2022/07/29 05:34:24;;;;;;;3.45;1.08;;;;;20.60;98834.00;;;;5042695;28;82342;-65
2022/07/29 05:36:50;;;;;;;5.97;1.13;;;20.90;99.90;21.20;98810.00;;;;5041622;28;83446;-65
2022/07/29 05:39:17;;;;;;;3.92;1.65;;;;;21.30;98823.00;;;;5042684;28;83426;-66
2022/07/29 05:41:44;;;;;;;11.45;1.45;;;;;21.40;98831.00;;;;5023717;28;82186;-66
2022/07/29 05:44:11;;;;;;;6.80;1.52;;;20.50;99.90;21.40;98827.00;;;;5042836;28;83337;-66
2022/07/29 05:46:37;;;;;;;2.58;1.30;;;;;21.70;98835.00;;;;5042357;28;82497;-66
2022/07/29 05:49:04;;;;;;;3.70;1.23;;;21.60;99.90;21.80;98828.00;;;;5042121;28;82151;-66
2022/07/29 05:51:30;;;;;;;3.25;1.10;;;;;21.60;98824.00;;;;5042078;28;82178;-65
2022/07/29 05:53:56;;;;;;;4.65;1.30;;;;;21.90;98825.00;;;;5041662;28;82096;-66
2022/07/29 05:56:23;;;;;;;2.35;0.80;;;;;21.60;98828.00;;;;5040530;28;82989;-66
2022/07/29 05:58:49;;;;;;;5.60;1.08;;;;;21.60;98818.00;;;;5042312;28;82565;-65
2022/07/29 06:01:16;;;;;;;2.33;1.00;;;;;21.80;98827.00;;;;5037301;28;83478;-65
2022/07/29 06:03:42;;;;;;;2.03;0.93;;;21.80;99.90;22.20;98831.00;;;;5042080;28;82231;-66
2022/07/29 06:06:09;;;;;;;3.35;1.00;;;21.80;99.90;22.50;98835.00;;;;5035233;28;83268;-65
2022/07/29 06:08:36;;;;;;;5.10;1.20;;;21.60;99.90;21.90;98833.00;;;;5040646;28;83853;-65
2022/07/29 06:11:04;;;;;;;6.50;1.60;;;21.10;99.90;21.60;98823.00;;;;5007346;28;82053;-65
2022/07/29 06:13:31;;;;;;;2.70;1.20;;;21.10;99.90;21.60;98835.00;;;;5022907;28;82678;-65
2022/07/29 06:15:57;;;;;;;4.80;1.17;;;20.70;99.90;21.50;98825.00;;;;5022910;28;84199;-65
2022/07/29 06:18:26;;;;;;;1.10;0.70;;;21.70;99.90;22.00;98827.00;;;;5025074;28;82676;-66
2022/07/29 06:20:53;;;;;;;5.53;1.00;;;21.40;99.90;21.90;98822.00;;;;5041429;28;82528;-65
2022/07/29 06:23:20;;;;;;;2.88;1.10;;;20.70;99.90;21.60;98834.00;;;;5023871;28;83502;-66
2022/07/29 06:25:48;;;;;;;3.80;1.10;;;;;21.20;98828.00;;;;5041539;28;83325;-66
2022/07/29 06:28:15;;;;;;;5.18;1.05;;;;;21.10;98832.00;;;;5040818;28;83532;-66
2022/07/29 06:30:41;;;;;;;8.52;2.97;;;20.50;99.90;21.20;98806.00;;;;5023820;28;82341;-66
2022/07/29 06:33:08;;;;;;;2.58;1.08;;;;;21.00;98827.00;;;;5023430;28;84543;-66
2022/07/29 06:35:35;;;;;;;2.22;0.80;;;20.40;99.90;20.50;98816.00;;;;5041489;28;82596;-66
2022/07/29 06:38:05;;;;;;;2.90;1.00;;;20.50;99.90;20.60;98812.00;;;;5024355;28;83603;-66
2022/07/29 06:43:17;;;;;;;11.20;2.15;;;;;20.80;98813.00;;;;5041733;28;83482;-66
2022/07/29 06:45:44;;;;;;;5.65;1.40;;;;;20.50;98821.00;;;;5040069;28;82089;-66
2022/07/29 06:48:10;;;;;;;1.80;0.90;;;;;20.80;98809.00;;;;5041531;28;82021;-65
2022/07/29 06:50:37;;;;;;;2.45;0.95;;;;;20.80;98809.00;;;;5040128;28;83614;-65
2022/07/29 06:53:03;;;;;;;1.70;1.00;;;20.40;99.90;20.80;98809.00;;;;5040655;28;82214;-65
2022/07/29 06:55:29;;;;;;;2.30;1.00;;;21.00;99.90;20.80;98814.00;;;;5041301;28;82569;-65
2022/07/29 06:57:56;;;;;;;4.75;1.00;;;;;20.80;98821.00;;;;5040072;28;82686;-66
2022/07/29 07:00:22;;;;;;;2.00;0.80;;;20.10;99.90;20.60;98812.00;;;;5023415;28;82683;-66
2022/07/29 07:02:48;;;;;;;3.83;1.30;;;;;20.70;98818.00;;;;5039177;28;82747;-66
2022/07/29 07:05:15;;;;;;;3.50;1.20;;;;;20.40;98826.00;;;;5041121;28;83388;-66
2022/07/29 07:07:41;;;;;;;2.58;0.98;;;19.80;99.90;20.20;98828.00;;;;5020984;28;83152;-66
2022/07/29 07:10:08;;;;;;;5.07;1.58;;;20.10;99.90;20.40;98826.00;;;;5040932;28;82318;-66
2022/07/29 07:12:34;;;;;;;3.50;1.30;;;19.80;99.90;20.30;98853.00;;;;5040969;28;82208;-65
2022/07/29 07:15:00;;;;;;;3.05;1.15;;;19.60;99.90;19.90;98836.00;;;;5035180;27;84060;-66
2022/07/29 07:17:27;;;;;;;4.15;1.38;;;;;20.10;98829.00;;;;5020319;28;83322;-65
2022/07/29 07:19:53;;;;;;;7.50;1.40;;;;;20.50;98825.00;;;;5041015;28;81958;-65
2022/07/29 07:22:20;;;;;;;3.97;0.70;;;;;20.90;98821.00;;;;5040230;28;82832;-65
2022/07/29 07:24:46;;;;;;;7.65;1.60;;;;;21.10;98823.00;;;;5041308;28;82924;-67
2022/07/29 07:27:13;;;;;;;15.48;3.20;;;;;21.40;98833.00;;;;5039738;28;82283;-66
2022/07/29 07:29:40;;;;;;;11.95;1.10;;;20.90;99.90;21.50;98826.00;;;;5040726;28;82139;-66
2022/07/29 07:32:07;;;;;;;1.83;1.10;;;21.10;99.90;21.40;98826.00;;;;5040373;28;83303;-66
2022/07/29 07:34:34;;;;;;;3.83;0.85;;;21.50;99.90;21.40;98830.00;;;;5040522;28;82464;-66
2022/07/29 07:37:00;;;;;;;3.60;1.23;;;;;21.20;98831.00;;;;5040660;28;83516;-66
2022/07/29 07:39:26;;;;;;;3.13;1.00;;;21.00;99.90;21.40;98828.00;;;;5040474;28;82892;-66
2022/07/29 07:41:53;;;;;;;5.90;1.10;;;21.10;99.90;21.60;98826.00;;;;5040558;28;84114;-66
2022/07/29 07:44:19;;;;;;;2.63;1.08;;;;;22.10;98828.00;;;;5034581;28;82525;-66
2022/07/29 07:46:46;;;;;;;3.42;1.00;;;22.00;99.90;22.30;98830.00;;;;5042175;28;82577;-66
2022/07/29 07:49:12;;;;;;;3.80;1.00;;;;;22.20;98822.00;;;;5044227;28;82550;-65
2022/07/29 07:51:39;;;;;;;3.20;1.02;;;;;22.50;98821.00;;;;5044173;28;82287;-65
2022/07/29 07:54:05;;;;;;;2.53;1.05;;;;;22.60;98828.00;;;;5025363;28;83699;-65
2022/07/29 07:56:31;;;;;;;1.88;0.80;;;22.50;99.90;22.60;98824.00;;;;5043975;28;84013;-65
2022/07/29 07:58:58;;;;;;;3.13;1.17;;;;;22.80;98835.00;;;;5026817;28;81993;-65
2022/07/29 08:01:24;;;;;;;3.03;1.25;;;;;22.80;98841.00;;;;5043880;28;82334;-65
2022/07/29 08:03:51;;;;;;;4.28;1.20;;;22.10;99.90;22.50;98855.00;;;;5043752;28;83776;-65
2022/07/29 08:06:17;;;;;;;5.28;1.00;;;;;22.10;98852.00;;;;5024543;28;84825;-65
2022/07/29 08:08:43;;;;;;;3.13;1.30;;;21.30;99.90;21.80;98856.00;;;;5025350;28;82207;-65
2022/07/29 08:11:10;;;;;;;2.65;0.90;;;;;21.50;98858.00;;;;5044465;28;82372;-65
2022/07/29 08:13:38;;;;;;;9.10;0.98;;;21.20;99.90;21.60;98853.00;;;;5025947;28;82444;-65
2022/07/29 08:16:11;;;;;;;3.50;0.90;;;21.50;99.90;21.90;98853.00;;;;5043398;28;82596;-66
2022/07/29 08:18:40;;;;;;;3.22;0.82;;;21.50;99.90;22.10;98843.00;;;;5043920;28;82290;-66
2022/07/29 08:21:07;;;;;;;3.03;0.93;;;21.80;99.90;22.10;98844.00;;;;5039157;28;81805;-65
2022/07/29 08:23:44;;;;;;;1.35;0.73;;;;;22.20;98853.00;;;;5043561;28;82595;-65
2022/07/29 08:26:12;;;;;;;2.50;1.00;;;21.50;99.90;21.90;98852.00;;;;5043376;28;83446;-65
2022/07/29 08:28:44;;;;;;;1.25;0.80;;;21.50;99.90;21.70;98851.00;;;;5025666;28;83593;-65
2022/07/29 08:31:11;;;;;;;2.88;0.90;;;21.30;99.90;21.70;98849.00;;;;5043173;28;83303;-65
2022/07/29 08:33:37;;;;;;;3.30;1.02;;;;;21.90;98841.00;;;;5043057;28;82388;-66
2022/07/29 08:36:05;;;;;;;2.63;0.90;;;21.80;99.90;22.00;98835.00;;;;5041225;28;82716;-66
2022/07/29 08:38:31;;;;;;;3.50;0.75;;;22.00;99.90;22.20;98841.00;;;;5036365;28;81959;-65
2022/07/29 08:41:00;;;;;;;4.85;0.93;;;22.10;99.90;22.30;98830.00;;;;5025321;28;82800;-65
2022/07/29 08:43:28;;;;;;;4.18;0.80;;;22.40;99.90;22.70;98835.00;;;;5043122;28;82796;-65
2022/07/29 08:45:55;;;;;;;1.40;0.60;;;;;23.00;98829.00;;;;5042839;28;82792;-65
2022/07/29 08:48:24;;;;;;;4.35;1.10;;;23.00;99.90;23.00;98833.00;;;;5025125;28;82100;-66
2022/07/29 08:50:56;;;;;;;3.28;1.38;;;23.00;99.90;23.10;98838.00;;;;5043657;28;82394;-66
2022/07/29 08:53:26;;;;;;;2.50;0.73;;;23.00;99.90;23.10;98832.00;;;;5039226;28;83443;-65
2022/07/29 08:55:53;;;;;;;3.65;0.90;;;22.60;99.90;22.90;98845.00;;;;5042793;27;83917;-65
2022/07/29 08:58:21;;;;;;;4.70;1.90;;;22.40;99.90;22.60;98837.00;;;;5008075;28;82300;-65
2022/07/29 09:00:54;;;;;;;2.53;0.88;;;21.90;99.90;22.20;98843.00;;;;5025338;28;82298;-66
2022/07/29 09:03:24;;;;;;;2.85;1.08;;;21.80;99.90;22.10;98844.00;;;;5042478;28;82402;-65
2022/07/29 09:05:51;;;;;;;1.00;0.65;;;20.90;99.90;22.20;98838.00;;;;5024295;28;82566;-66
2022/07/29 09:08:18;;;;;;;3.38;1.08;;;22.00;99.90;22.20;98839.00;;;;5042297;28;82369;-65
2022/07/29 09:10:45;;;;;;;3.15;0.90;;;21.90;99.90;22.20;98842.00;;;;5025749;28;82106;-65
2022/07/29 09:13:11;;;;;;;3.38;1.10;;;;;21.90;98841.00;;;;5042490;28;82636;-65
2022/07/29 09:15:38;;;;;;;2.03;0.90;;;21.50;99.90;21.60;98832.00;;;;5042513;28;82049;-65
2022/07/29 09:18:04;;;;;;;5.05;0.85;;;21.20;99.90;21.60;98827.00;;;;5042589;28;83960;-66
2022/07/29 09:23:15;;;;;;;4.78;1.98;;;;;21.80;98845.00;;;;5042379;28;82693;-66
2022/07/29 09:25:42;;;;;;;6.47;1.38;;;21.70;99.90;22.00;98836.00;;;;5043204;28;82670;-66
2022/07/29 09:28:14;;;;;;;2.92;1.42;;;21.90;99.90;22.20;98847.00;;;;5039253;28;82337;-66
2022/07/29 09:30:58;;;;;;;2.00;0.95;;;22.20;99.90;22.60;98837.00;;;;5042725;28;82557;-65
2022/07/29 09:33:34;;;;;;;1.40;1.00;;;22.50;99.90;22.80;98830.00;;;;5038062;28;84100;-65
2022/07/29 09:36:04;;;;;;;2.47;0.70;;;22.60;99.90;22.90;98857.00;;;;5041095;28;82990;-65
2022/07/29 09:38:31;;;;;;;4.33;0.87;;;;;22.40;98846.00;;;;5035362;28;82187;-66
2022/07/29 09:41:01;;;;;;;3.35;0.77;;;22.30;99.90;22.10;98846.00;;;;5042412;28;82621;-66
2022/07/29 09:43:28;;;;;;;2.75;0.77;;;;;21.90;98854.00;;;;5041279;28;85128;-65
2022/07/29 09:45:54;;;;;;;2.70;0.80;;;21.40;99.90;21.80;98852.00;;;;5041719;28;82361;-66
2022/07/29 09:48:25;;;;;;;3.47;0.82;;;21.50;99.90;21.80;98853.00;;;;5042718;28;82690;-65
2022/07/29 09:50:52;;;;;;;2.00;0.73;;;21.70;99.90;22.00;98846.00;;;;5042147;28;82482;-65
2022/07/29 09:53:32;;;;;;;5.10;0.82;;;22.10;99.90;22.40;98846.00;;;;5041608;28;83721;-66
2022/07/29 09:55:59;;;;;;;5.00;0.60;;;;;22.80;98858.00;;;;5041591;28;83513;-65
2022/07/29 09:58:26;;;;;;;2.33;0.80;;;;;23.00;98850.00;;;;5042134;28;82092;-65
2022/07/29 10:00:54;;;;;;;2.70;0.82;;;23.00;99.90;23.30;98845.00;;;;5041964;28;82294;-65
2022/07/29 10:03:21;;;;;;;2.40;0.60;;;22.80;99.90;23.20;98845.00;;;;5041648;28;82637;-66
2022/07/29 10:06:09;;;;;;;5.78;0.70;;;23.10;99.90;23.50;98837.00;;;;5006742;27;82822;-66
2022/07/29 10:08:36;;;;;;;2.30;1.10;;;23.10;99.90;23.30;98844.00;;;;5040183;28;82918;-65
2022/07/29 10:11:21;;;;;;;0.95;0.85;;;23.10;99.90;23.40;98835.00;;;;5042132;28;82259;-65
2022/07/29 10:13:48;;;;;;;2.63;1.38;;;23.30;99.90;23.60;98832.00;;;;5041659;28;83514;-65
2022/07/29 10:16:16;;;;;;;5.07;0.93;;;23.30;99.90;23.60;98843.00;;;;5040566;28;82326;-66
2022/07/29 10:18:44;;;;;;;1.85;1.10;;;23.40;99.90;23.70;98844.00;;;;5024208;28;82072;-65
2022/07/29 10:21:11;;;;;;;1.90;0.80;;;23.40;99.90;24.00;98840.00;;;;5042189;28;82261;-65
2022/07/29 10:23:37;;;;;;;4.57;0.80;;;23.60;99.90;24.30;98843.00;;;;5041595;28;83616;-66
2022/07/29 10:26:04;;;;;;;4.03;2.28;;;23.80;99.90;24.10;98825.00;;;;5024328;28;81963;-66
2022/07/29 10:28:31;;;;;;;1.60;0.90;;;23.80;99.90;23.80;98838.00;;;;5022910;28;81878;-65
2022/07/29 10:31:06;;;;;;;2.85;0.90;;;23.20;99.90;23.70;98842.00;;;;5018447;28;83531;-65
2022/07/29 10:34:01;;;;;;;2.10;0.60;;;23.40;99.90;23.70;98838.00;;;;4982759;28;83484;-65
2022/07/29 10:36:42;;;;;;;2.63;0.73;;;23.10;99.90;23.70;98836.00;;;;5015415;28;83184;-65
2022/07/29 10:39:48;;;;;;;3.40;1.00;;;23.40;99.90;23.70;98842.00;;;;5021394;28;82355;-66
2022/07/29 10:42:25;;;;;;;2.83;1.30;;;22.90;99.90;23.20;98858.00;;;;5003249;28;83739;-65
2022/07/29 10:44:52;;;;;;;2.38;0.88;;;23.10;99.90;23.30;98847.00;;;;5020182;28;82754;-65
2022/07/29 10:47:27;;;;;;;2.35;0.65;;;22.90;99.90;23.20;98848.00;;;;5021343;28;84357;-66
2022/07/29 10:49:59;;;;;;;3.28;0.93;;;22.80;99.90;23.00;98851.00;;;;5002806;28;82997;-66
2022/07/29 10:52:56;;;;;;;2.58;0.93;;;22.50;99.90;22.80;98844.00;;;;5021752;28;82158;-65
2022/07/29 10:55:44;;;;;;;1.92;0.60;;;22.50;99.90;22.90;98856.00;;;;5001363;28;82948;-65
2022/07/29 10:58:23;;;;;;;1.70;0.75;;;22.40;99.90;23.00;98858.00;;;;5003201;28;82510;-65
2022/07/29 11:00:52;;;;;;;2.33;1.17;;;22.90;99.90;23.10;98854.00;;;;5001808;28;83506;-66
2022/07/29 11:03:45;;;;;;;4.72;1.20;;;23.10;99.90;23.40;98837.00;;;;5021071;28;82338;-66
2022/07/29 11:06:12;;;;;;;3.40;0.82;;;;;23.70;98848.00;;;;5003885;28;82021;-66
2022/07/29 11:08:38;;;;;;;2.20;0.80;;;;;24.00;98846.00;;;;5019710;28;83017;-66
2022/07/29 11:11:20;;;;;;;2.53;0.90;;;24.00;99.90;24.50;98852.00;;;;5004003;28;82007;-62
2022/07/29 11:13:50;;;;;;;;;;;24.10;99.90;24.60;98839.00;;;;5021257;28;82053;-62
2022/07/29 11:16:18;;;;;;;2.15;0.85;;;24.00;99.90;24.30;98843.00;;;;5021933;28;82693;-62
2022/07/29 11:19:11;;;;;;;3.15;0.80;;;24.50;99.90;24.70;98835.00;;;;5004452;28;82258;-62
2022/07/29 11:21:40;;;;;;;4.00;0.75;;;24.40;99.90;24.60;98849.00;;;;5023863;28;82046;-64
2022/07/29 11:24:14;;;;;;;4.88;0.80;;;24.60;99.90;24.80;98843.00;;;;5024335;28;82767;-62
2022/07/29 11:26:41;;;;;;;1.75;0.57;;;24.40;99.90;24.80;98847.00;;;;5023860;28;84555;-64
2022/07/29 11:29:20;;;;;;;1.83;0.77;;;24.10;99.90;24.50;98850.00;;;;4982998;28;83482;-64
2022/07/29 11:31:53;;;;;;;2.65;0.80;;;24.10;99.90;24.40;98850.00;;;;5024465;28;82331;-64
2022/07/29 11:34:24;;;;;;;2.08;0.80;;;;;24.40;98851.00;;;;5015477;28;83631;-63
2022/07/29 11:37:09;;;;;;;1.43;1.00;;;23.90;99.90;24.30;98856.00;;;;4997296;28;83694;-64
2022/07/29 11:40:04;;;;;;;1.80;0.70;;;23.70;99.90;23.90;98847.00;;;;5013024;28;82136;-64